Terminal Aerodrome Forecast
Issued by NWS Raleigh/Durham, NC

Home | Current Version | Previous Version | Text Only | Print | Product List | Glossary On
Versions: 1 2 3 4 5 6 7 8 9 10 11 12 13 14 15 16 17 18 19 20 21 22 23 24 25 26 27 28 29 30 31 32 33 34 35 36 37 38
000
FTUS42 KRAH 230854 AAA
TAFGSO
TAF AMD
KGSO 230854Z 2309/2406 VRB02KT 6SM HZ SCT040 OVC250
      TEMPO 2310/2313 BKN012
     FM231300 12003KT P6SM SCT025 BKN070
     FM231600 10005KT 6SM -RA BKN020 OVC070
     FM231900 10007KT 3SM -RA BR OVC006
     FM240300 15009KT 3SM -RADZ OVC003 WS020/19055KT=

USA.gov is the U.S. government's official web portal to all federal, state and local government web resources and services.